sensor_id;sensor_type;location;lat;lon;timestamp;P1;durP1;ratioP1;P2;durP2;ratioP2
22332;SDS011;11334;36.986;-121.936;2023-04-25T00:00:33;15.73;;;5.93;;
22332;SDS011;11334;36.986;-121.936;2023-04-25T00:02:59;19.70;;;5.63;;
22332;SDS011;11334;36.986;-121.936;2023-04-25T00:05:26;14.60;;;5.65;;
22332;SDS011;11334;36.986;-121.936;2023-04-25T00:07:52;18.63;;;6.40;;
22332;SDS011;11334;36.986;-121.936;2023-04-25T00:10:19;21.33;;;6.15;;
22332;SDS011;11334;36.986;-121.936;2023-04-25T00:12:46;17.02;;;5.85;;
22332;SDS011;11334;36.986;-121.936;2023-04-25T00:15:13;15.63;;;5.95;;
22332;SDS011;11334;36.986;-121.936;2023-04-25T00:17:39;20.63;;;6.95;;
22332;SDS011;11334;36.986;-121.936;2023-04-25T00:20:06;17.15;;;5.45;;
22332;SDS011;11334;36.986;-121.936;2023-04-25T00:22:36;15.60;;;5.07;;
22332;SDS011;11334;36.986;-121.936;2023-04-25T00:25:05;13.63;;;5.57;;
22332;SDS011;11334;36.986;-121.936;2023-04-25T00:27:32;15.90;;;5.68;;
22332;SDS011;11334;36.986;-121.936;2023-04-25T00:29:59;16.00;;;5.85;;
22332;SDS011;11334;36.986;-121.936;2023-04-25T00:32:26;20.70;;;6.28;;
22332;SDS011;11334;36.986;-121.936;2023-04-25T00:34:52;14.98;;;5.57;;
22332;SDS011;11334;36.986;-121.936;2023-04-25T00:37:18;18.33;;;5.90;;
22332;SDS011;11334;36.986;-121.936;2023-04-25T00:39:45;21.25;;;6.05;;
22332;SDS011;11334;36.986;-121.936;2023-04-25T00:42:11;18.55;;;6.47;;
22332;SDS011;11334;36.986;-121.936;2023-04-25T00:44:37;20.65;;;6.20;;
22332;SDS011;11334;36.986;-121.936;2023-04-25T00:47:04;15.15;;;5.40;;
22332;SDS011;11334;36.986;-121.936;2023-04-25T00:49:30;15.85;;;6.45;;
22332;SDS011;11334;36.986;-121.936;2023-04-25T00:51:56;20.05;;;7.25;;
22332;SDS011;11334;36.986;-121.936;2023-04-25T00:54:23;19.40;;;6.30;;
22332;SDS011;11334;36.986;-121.936;2023-04-25T00:56:50;26.25;;;7.15;;
22332;SDS011;11334;36.986;-121.936;2023-04-25T00:59:16;20.73;;;6.47;;
22332;SDS011;11334;36.986;-121.936;2023-04-25T01:01:43;19.98;;;6.80;;
22332;SDS011;11334;36.986;-121.936;2023-04-25T01:04:11;22.60;;;7.00;;
22332;SDS011;11334;36.986;-121.936;2023-04-25T01:06:38;23.42;;;7.32;;
22332;SDS011;11334;36.986;-121.936;2023-04-25T01:09:04;17.77;;;6.40;;
22332;SDS011;11334;36.986;-121.936;2023-04-25T01:11:31;22.17;;;6.80;;
22332;SDS011;11334;36.986;-121.936;2023-04-25T01:13:57;19.77;;;6.88;;
22332;SDS011;11334;36.986;-121.936;2023-04-25T01:16:23;21.52;;;6.80;;
22332;SDS011;11334;36.986;-121.936;2023-04-25T01:18:50;20.95;;;6.90;;
22332;SDS011;11334;36.986;-121.936;2023-04-25T01:21:17;18.90;;;7.15;;
22332;SDS011;11334;36.986;-121.936;2023-04-25T01:23:43;20.60;;;6.88;;
22332;SDS011;11334;36.986;-121.936;2023-04-25T01:26:11;19.13;;;7.07;;
22332;SDS011;11334;36.986;-121.936;2023-04-25T01:28:38;22.30;;;6.90;;
22332;SDS011;11334;36.986;-121.936;2023-04-25T01:31:08;20.08;;;6.72;;
22332;SDS011;11334;36.986;-121.936;2023-04-25T01:33:35;22.80;;;6.82;;
22332;SDS011;11334;36.986;-121.936;2023-04-25T01:36:01;20.63;;;7.03;;
22332;SDS011;11334;36.986;-121.936;2023-04-25T01:38:27;17.48;;;6.10;;
22332;SDS011;11334;36.986;-121.936;2023-04-25T01:40:54;22.27;;;6.57;;
22332;SDS011;11334;36.986;-121.936;2023-04-25T01:43:21;19.40;;;6.55;;
22332;SDS011;11334;36.986;-121.936;2023-04-25T01:45:48;18.52;;;6.80;;
22332;SDS011;11334;36.986;-121.936;2023-04-25T01:48:15;20.63;;;6.93;;
22332;SDS011;11334;36.986;-121.936;2023-04-25T01:50:41;17.90;;;6.72;;
22332;SDS011;11334;36.986;-121.936;2023-04-25T01:53:08;17.38;;;6.55;;
22332;SDS011;11334;36.986;-121.936;2023-04-25T01:55:36;23.88;;;7.18;;
22332;SDS011;11334;36.986;-121.936;2023-04-25T01:58:03;19.55;;;7.25;;
22332;SDS011;11334;36.986;-121.936;2023-04-25T02:00:35;30.98;;;7.63;;
22332;SDS011;11334;36.986;-121.936;2023-04-25T02:03:04;22.40;;;7.60;;
22332;SDS011;11334;36.986;-121.936;2023-04-25T02:05:34;23.50;;;6.93;;
22332;SDS011;11334;36.986;-121.936;2023-04-25T02:08:08;17.42;;;7.13;;
22332;SDS011;11334;36.986;-121.936;2023-04-25T02:10:35;18.83;;;6.68;;
22332;SDS011;11334;36.986;-121.936;2023-04-25T02:13:01;23.38;;;6.50;;
22332;SDS011;11334;36.986;-121.936;2023-04-25T02:15:29;20.58;;;7.10;;
22332;SDS011;11334;36.986;-121.936;2023-04-25T02:17:55;19.20;;;6.13;;
22332;SDS011;11334;36.986;-121.936;2023-04-25T02:20:23;21.42;;;6.72;;
22332;SDS011;11334;36.986;-121.936;2023-04-25T02:22:50;24.35;;;6.80;;
22332;SDS011;11334;36.986;-121.936;2023-04-25T02:25:17;24.85;;;6.63;;
22332;SDS011;11334;36.986;-121.936;2023-04-25T02:27:45;22.23;;;6.88;;
22332;SDS011;11334;36.986;-121.936;2023-04-25T02:30:12;19.52;;;6.68;;
22332;SDS011;11334;36.986;-121.936;2023-04-25T02:32:39;29.38;;;6.78;;
22332;SDS011;11334;36.986;-121.936;2023-04-25T02:35:06;30.02;;;7.88;;
22332;SDS011;11334;36.986;-121.936;2023-04-25T02:37:34;22.52;;;6.63;;
22332;SDS011;11334;36.986;-121.936;2023-04-25T02:40:01;23.45;;;6.55;;
22332;SDS011;11334;36.986;-121.936;2023-04-25T02:42:29;21.38;;;6.50;;
22332;SDS011;11334;36.986;-121.936;2023-04-25T02:44:55;22.17;;;7.28;;
22332;SDS011;11334;36.986;-121.936;2023-04-25T02:47:21;22.35;;;6.35;;
22332;SDS011;11334;36.986;-121.936;2023-04-25T02:49:48;26.17;;;7.20;;
22332;SDS011;11334;36.986;-121.936;2023-04-25T02:52:14;24.90;;;7.03;;
22332;SDS011;11334;36.986;-121.936;2023-04-25T02:54:40;34.65;;;7.93;;
22332;SDS011;11334;36.986;-121.936;2023-04-25T02:57:07;21.50;;;7.35;;
22332;SDS011;11334;36.986;-121.936;2023-04-25T02:59:33;25.73;;;7.05;;
22332;SDS011;11334;36.986;-121.936;2023-04-25T03:02:00;29.90;;;8.38;;
22332;SDS011;11334;36.986;-121.936;2023-04-25T03:04:27;22.55;;;7.07;;
22332;SDS011;11334;36.986;-121.936;2023-04-25T03:06:53;20.77;;;7.53;;
22332;SDS011;11334;36.986;-121.936;2023-04-25T03:09:19;21.85;;;6.47;;
22332;SDS011;11334;36.986;-121.936;2023-04-25T03:11:45;28.10;;;7.40;;
22332;SDS011;11334;36.986;-121.936;2023-04-25T03:14:12;25.55;;;6.78;;
22332;SDS011;11334;36.986;-121.936;2023-04-25T03:16:39;20.95;;;7.03;;
22332;SDS011;11334;36.986;-121.936;2023-04-25T03:19:05;26.83;;;7.38;;
22332;SDS011;11334;36.986;-121.936;2023-04-25T03:21:32;26.52;;;7.60;;
22332;SDS011;11334;36.986;-121.936;2023-04-25T03:24:00;25.77;;;6.50;;
22332;SDS011;11334;36.986;-121.936;2023-04-25T03:26:27;26.67;;;6.60;;
22332;SDS011;11334;36.986;-121.936;2023-04-25T03:28:54;21.85;;;6.35;;
22332;SDS011;11334;36.986;-121.936;2023-04-25T03:31:20;31.70;;;8.35;;
22332;SDS011;11334;36.986;-121.936;2023-04-25T03:33:47;24.50;;;6.43;;
22332;SDS011;11334;36.986;-121.936;2023-04-25T03:36:14;25.13;;;6.65;;
22332;SDS011;11334;36.986;-121.936;2023-04-25T03:38:40;29.73;;;7.38;;
22332;SDS011;11334;36.986;-121.936;2023-04-25T03:41:07;26.08;;;6.90;;
22332;SDS011;11334;36.986;-121.936;2023-04-25T03:43:33;21.02;;;6.60;;
22332;SDS011;11334;36.986;-121.936;2023-04-25T03:45:59;25.77;;;7.18;;
22332;SDS011;11334;36.986;-121.936;2023-04-25T03:48:26;28.30;;;6.97;;
22332;SDS011;11334;36.986;-121.936;2023-04-25T03:50:53;22.67;;;7.05;;
22332;SDS011;11334;36.986;-121.936;2023-04-25T03:53:20;25.00;;;6.45;;
22332;SDS011;11334;36.986;-121.936;2023-04-25T03:55:46;25.20;;;6.82;;
22332;SDS011;11334;36.986;-121.936;2023-04-25T03:58:12;26.75;;;6.28;;
22332;SDS011;11334;36.986;-121.936;2023-04-25T04:00:39;18.50;;;5.70;;
22332;SDS011;11334;36.986;-121.936;2023-04-25T04:03:05;16.08;;;5.13;;
22332;SDS011;11334;36.986;-121.936;2023-04-25T04:05:31;16.65;;;5.65;;
22332;SDS011;11334;36.986;-121.936;2023-04-25T04:07:57;21.23;;;5.93;;
22332;SDS011;11334;36.986;-121.936;2023-04-25T04:10:24;16.27;;;5.88;;
22332;SDS011;11334;36.986;-121.936;2023-04-25T04:12:51;22.15;;;5.63;;
22332;SDS011;11334;36.986;-121.936;2023-04-25T04:15:17;19.25;;;5.80;;
22332;SDS011;11334;36.986;-121.936;2023-04-25T04:17:43;19.35;;;5.78;;
22332;SDS011;11334;36.986;-121.936;2023-04-25T04:20:12;20.33;;;6.55;;
22332;SDS011;11334;36.986;-121.936;2023-04-25T04:22:38;23.27;;;5.60;;
22332;SDS011;11334;36.986;-121.936;2023-04-25T04:25:04;21.58;;;5.80;;
22332;SDS011;11334;36.986;-121.936;2023-04-25T04:27:31;19.98;;;6.18;;
22332;SDS011;11334;36.986;-121.936;2023-04-25T04:29:58;16.70;;;5.70;;
22332;SDS011;11334;36.986;-121.936;2023-04-25T04:32:24;18.35;;;6.85;;
22332;SDS011;11334;36.986;-121.936;2023-04-25T04:34:50;24.63;;;7.43;;
22332;SDS011;11334;36.986;-121.936;2023-04-25T04:37:17;21.73;;;6.90;;
22332;SDS011;11334;36.986;-121.936;2023-04-25T04:39:44;22.15;;;5.97;;
22332;SDS011;11334;36.986;-121.936;2023-04-25T04:42:10;19.77;;;5.90;;
22332;SDS011;11334;36.986;-121.936;2023-04-25T04:44:36;20.52;;;6.32;;
22332;SDS011;11334;36.986;-121.936;2023-04-25T04:47:04;19.60;;;6.07;;
22332;SDS011;11334;36.986;-121.936;2023-04-25T04:49:34;25.50;;;6.68;;
22332;SDS011;11334;36.986;-121.936;2023-04-25T04:52:01;19.00;;;5.10;;
22332;SDS011;11334;36.986;-121.936;2023-04-25T04:54:28;19.63;;;6.32;;
22332;SDS011;11334;36.986;-121.936;2023-04-25T04:56:54;19.33;;;6.30;;
22332;SDS011;11334;36.986;-121.936;2023-04-25T04:59:20;17.08;;;5.68;;
22332;SDS011;11334;36.986;-121.936;2023-04-25T05:01:46;22.30;;;6.78;;
22332;SDS011;11334;36.986;-121.936;2023-04-25T05:04:13;14.90;;;5.75;;
22332;SDS011;11334;36.986;-121.936;2023-04-25T05:06:39;21.00;;;6.20;;
22332;SDS011;11334;36.986;-121.936;2023-04-25T05:09:06;18.73;;;5.70;;
22332;SDS011;11334;36.986;-121.936;2023-04-25T05:11:32;19.27;;;5.65;;
22332;SDS011;11334;36.986;-121.936;2023-04-25T05:13:59;20.77;;;6.25;;
22332;SDS011;11334;36.986;-121.936;2023-04-25T05:16:26;15.30;;;5.60;;
22332;SDS011;11334;36.986;-121.936;2023-04-25T05:18:54;18.25;;;6.57;;
22332;SDS011;11334;36.986;-121.936;2023-04-25T05:21:20;20.88;;;6.20;;
22332;SDS011;11334;36.986;-121.936;2023-04-25T05:23:48;21.60;;;7.38;;
22332;SDS011;11334;36.986;-121.936;2023-04-25T05:26:14;21.48;;;6.50;;
22332;SDS011;11334;36.986;-121.936;2023-04-25T05:28:41;22.88;;;6.90;;
22332;SDS011;11334;36.986;-121.936;2023-04-25T05:31:09;18.45;;;6.55;;
22332;SDS011;11334;36.986;-121.936;2023-04-25T05:33:36;18.35;;;6.60;;
22332;SDS011;11334;36.986;-121.936;2023-04-25T05:36:03;22.27;;;6.13;;
22332;SDS011;11334;36.986;-121.936;2023-04-25T05:38:30;25.35;;;6.75;;
22332;SDS011;11334;36.986;-121.936;2023-04-25T05:40:57;22.67;;;6.53;;
22332;SDS011;11334;36.986;-121.936;2023-04-25T05:43:24;13.40;;;5.70;;
22332;SDS011;11334;36.986;-121.936;2023-04-25T05:45:50;18.55;;;6.13;;
22332;SDS011;11334;36.986;-121.936;2023-04-25T05:48:16;18.58;;;5.97;;
22332;SDS011;11334;36.986;-121.936;2023-04-25T05:50:43;20.63;;;5.70;;
22332;SDS011;11334;36.986;-121.936;2023-04-25T05:53:09;21.48;;;6.03;;
22332;SDS011;11334;36.986;-121.936;2023-04-25T05:55:35;15.82;;;5.32;;
22332;SDS011;11334;36.986;-121.936;2023-04-25T05:58:01;16.80;;;5.75;;
22332;SDS011;11334;36.986;-121.936;2023-04-25T06:00:28;17.17;;;5.97;;
22332;SDS011;11334;36.986;-121.936;2023-04-25T06:02:54;17.23;;;6.35;;
22332;SDS011;11334;36.986;-121.936;2023-04-25T06:05:21;19.63;;;5.60;;
22332;SDS011;11334;36.986;-121.936;2023-04-25T06:07:47;21.10;;;6.35;;
22332;SDS011;11334;36.986;-121.936;2023-04-25T06:10:13;14.25;;;5.90;;
22332;SDS011;11334;36.986;-121.936;2023-04-25T06:12:40;13.85;;;5.70;;
22332;SDS011;11334;36.986;-121.936;2023-04-25T06:15:06;14.48;;;5.90;;
22332;SDS011;11334;36.986;-121.936;2023-04-25T06:17:33;14.82;;;4.93;;
22332;SDS011;11334;36.986;-121.936;2023-04-25T06:20:00;18.65;;;5.80;;
22332;SDS011;11334;36.986;-121.936;2023-04-25T06:22:27;17.05;;;5.70;;
22332;SDS011;11334;36.986;-121.936;2023-04-25T06:24:53;19.25;;;6.13;;
22332;SDS011;11334;36.986;-121.936;2023-04-25T06:27:22;12.95;;;5.78;;
22332;SDS011;11334;36.986;-121.936;2023-04-25T06:29:48;16.48;;;5.15;;
22332;SDS011;11334;36.986;-121.936;2023-04-25T06:32:15;16.58;;;5.40;;
22332;SDS011;11334;36.986;-121.936;2023-04-25T06:34:43;17.83;;;5.00;;
22332;SDS011;11334;36.986;-121.936;2023-04-25T06:37:09;22.08;;;5.78;;
22332;SDS011;11334;36.986;-121.936;2023-04-25T06:39:35;15.18;;;5.20;;
22332;SDS011;11334;36.986;-121.936;2023-04-25T06:42:01;10.55;;;4.80;;
22332;SDS011;11334;36.986;-121.936;2023-04-25T06:44:28;20.70;;;5.20;;
22332;SDS011;11334;36.986;-121.936;2023-04-25T06:46:55;20.67;;;6.82;;
22332;SDS011;11334;36.986;-121.936;2023-04-25T06:49:21;19.17;;;5.35;;
22332;SDS011;11334;36.986;-121.936;2023-04-25T06:51:47;16.83;;;5.25;;
22332;SDS011;11334;36.986;-121.936;2023-04-25T06:54:14;19.38;;;5.80;;
22332;SDS011;11334;36.986;-121.936;2023-04-25T06:56:40;12.07;;;4.70;;
22332;SDS011;11334;36.986;-121.936;2023-04-25T06:59:06;12.38;;;4.90;;
22332;SDS011;11334;36.986;-121.936;2023-04-25T07:01:33;16.25;;;5.00;;
22332;SDS011;11334;36.986;-121.936;2023-04-25T07:03:59;13.23;;;4.90;;
22332;SDS011;11334;36.986;-121.936;2023-04-25T07:06:25;15.88;;;5.05;;
22332;SDS011;11334;36.986;-121.936;2023-04-25T07:08:53;17.05;;;5.60;;
22332;SDS011;11334;36.986;-121.936;2023-04-25T07:11:20;16.55;;;5.68;;
22332;SDS011;11334;36.986;-121.936;2023-04-25T07:13:46;17.95;;;5.03;;
22332;SDS011;11334;36.986;-121.936;2023-04-25T07:16:12;18.52;;;5.70;;
22332;SDS011;11334;36.986;-121.936;2023-04-25T07:18:38;15.25;;;5.47;;
22332;SDS011;11334;36.986;-121.936;2023-04-25T07:21:04;15.13;;;4.38;;
22332;SDS011;11334;36.986;-121.936;2023-04-25T07:23:31;16.27;;;5.22;;
22332;SDS011;11334;36.986;-121.936;2023-04-25T07:25:57;17.17;;;4.80;;
22332;SDS011;11334;36.986;-121.936;2023-04-25T07:28:23;18.02;;;5.00;;
22332;SDS011;11334;36.986;-121.936;2023-04-25T07:30:50;13.32;;;4.55;;
22332;SDS011;11334;36.986;-121.936;2023-04-25T07:33:18;17.73;;;5.55;;
22332;SDS011;11334;36.986;-121.936;2023-04-25T07:35:45;12.48;;;4.82;;
22332;SDS011;11334;36.986;-121.936;2023-04-25T07:38:12;13.57;;;5.20;;
22332;SDS011;11334;36.986;-121.936;2023-04-25T07:40:38;16.88;;;5.25;;
22332;SDS011;11334;36.986;-121.936;2023-04-25T07:43:04;16.98;;;4.85;;
22332;SDS011;11334;36.986;-121.936;2023-04-25T07:45:30;15.93;;;4.57;;
22332;SDS011;11334;36.986;-121.936;2023-04-25T07:47:56;16.08;;;4.60;;
22332;SDS011;11334;36.986;-121.936;2023-04-25T07:50:23;14.07;;;4.32;;
22332;SDS011;11334;36.986;-121.936;2023-04-25T07:52:49;15.70;;;4.95;;
22332;SDS011;11334;36.986;-121.936;2023-04-25T07:55:15;13.10;;;4.70;;
22332;SDS011;11334;36.986;-121.936;2023-04-25T07:57:41;17.27;;;4.82;;
22332;SDS011;11334;36.986;-121.936;2023-04-25T08:00:08;14.55;;;4.25;;
22332;SDS011;11334;36.986;-121.936;2023-04-25T08:02:35;15.50;;;4.43;;
22332;SDS011;11334;36.986;-121.936;2023-04-25T08:05:02;14.52;;;5.05;;
22332;SDS011;11334;36.986;-121.936;2023-04-25T08:07:28;17.17;;;5.68;;
22332;SDS011;11334;36.986;-121.936;2023-04-25T08:09:54;17.85;;;4.70;;
22332;SDS011;11334;36.986;-121.936;2023-04-25T08:12:21;15.02;;;4.05;;
22332;SDS011;11334;36.986;-121.936;2023-04-25T08:14:47;20.13;;;5.15;;
22332;SDS011;11334;36.986;-121.936;2023-04-25T08:17:14;20.48;;;5.43;;
22332;SDS011;11334;36.986;-121.936;2023-04-25T08:19:40;15.00;;;4.72;;
22332;SDS011;11334;36.986;-121.936;2023-04-25T08:22:07;11.18;;;5.03;;
22332;SDS011;11334;36.986;-121.936;2023-04-25T08:24:33;14.65;;;4.75;;
22332;SDS011;11334;36.986;-121.936;2023-04-25T08:26:59;18.02;;;4.60;;
22332;SDS011;11334;36.986;-121.936;2023-04-25T08:29:26;15.63;;;4.72;;
22332;SDS011;11334;36.986;-121.936;2023-04-25T08:31:53;17.48;;;5.13;;
22332;SDS011;11334;36.986;-121.936;2023-04-25T08:34:19;19.08;;;4.28;;
22332;SDS011;11334;36.986;-121.936;2023-04-25T08:36:46;19.05;;;4.97;;
22332;SDS011;11334;36.986;-121.936;2023-04-25T08:39:12;16.38;;;4.50;;
22332;SDS011;11334;36.986;-121.936;2023-04-25T08:41:38;11.50;;;4.35;;
22332;SDS011;11334;36.986;-121.936;2023-04-25T08:44:06;14.35;;;4.50;;
22332;SDS011;11334;36.986;-121.936;2023-04-25T08:46:35;11.15;;;4.95;;
22332;SDS011;11334;36.986;-121.936;2023-04-25T08:49:05;17.13;;;5.07;;
22332;SDS011;11334;36.986;-121.936;2023-04-25T08:51:32;14.82;;;5.03;;
22332;SDS011;11334;36.986;-121.936;2023-04-25T08:54:08;21.45;;;4.72;;
22332;SDS011;11334;36.986;-121.936;2023-04-25T08:56:40;13.57;;;5.10;;
22332;SDS011;11334;36.986;-121.936;2023-04-25T08:59:10;10.20;;;4.55;;
22332;SDS011;11334;36.986;-121.936;2023-04-25T09:01:37;16.48;;;4.97;;
22332;SDS011;11334;36.986;-121.936;2023-04-25T09:04:03;12.02;;;4.70;;
22332;SDS011;11334;36.986;-121.936;2023-04-25T09:06:30;14.23;;;4.05;;
22332;SDS011;11334;36.986;-121.936;2023-04-25T09:09:15;21.38;;;5.40;;
22332;SDS011;11334;36.986;-121.936;2023-04-25T09:11:41;15.27;;;5.45;;
22332;SDS011;11334;36.986;-121.936;2023-04-25T09:22:01;14.20;;;5.43;;
22332;SDS011;11334;36.986;-121.936;2023-04-25T09:24:36;14.18;;;4.53;;
22332;SDS011;11334;36.986;-121.936;2023-04-25T09:27:03;14.95;;;5.15;;
22332;SDS011;11334;36.986;-121.936;2023-04-25T09:29:31;17.80;;;5.00;;
22332;SDS011;11334;36.986;-121.936;2023-04-25T09:34:52;17.95;;;4.53;;
22332;SDS011;11334;36.986;-121.936;2023-04-25T09:37:23;10.70;;;4.80;;
22332;SDS011;11334;36.986;-121.936;2023-04-25T09:39:54;14.90;;;5.53;;
22332;SDS011;11334;36.986;-121.936;2023-04-25T09:42:25;17.20;;;4.20;;
22332;SDS011;11334;36.986;-121.936;2023-04-25T09:44:53;11.82;;;3.83;;
22332;SDS011;11334;36.986;-121.936;2023-04-25T09:47:22;12.35;;;4.88;;
22332;SDS011;11334;36.986;-121.936;2023-04-25T09:49:50;12.35;;;4.32;;
22332;SDS011;11334;36.986;-121.936;2023-04-25T09:54:45;16.00;;;5.07;;
22332;SDS011;11334;36.986;-121.936;2023-04-25T09:59:51;14.38;;;5.10;;
22332;SDS011;11334;36.986;-121.936;2023-04-25T10:02:19;13.38;;;4.70;;
22332;SDS011;11334;36.986;-121.936;2023-04-25T10:04:53;15.70;;;5.10;;
22332;SDS011;11334;36.986;-121.936;2023-04-25T10:07:24;20.52;;;4.65;;
22332;SDS011;11334;36.986;-121.936;2023-04-25T10:09:56;13.65;;;4.85;;
22332;SDS011;11334;36.986;-121.936;2023-04-25T10:12:27;12.13;;;4.93;;
22332;SDS011;11334;36.986;-121.936;2023-04-25T10:14:54;10.80;;;3.83;;
22332;SDS011;11334;36.986;-121.936;2023-04-25T10:17:20;12.18;;;4.82;;
22332;SDS011;11334;36.986;-121.936;2023-04-25T10:19:50;13.05;;;4.70;;
22332;SDS011;11334;36.986;-121.936;2023-04-25T10:22:18;11.80;;;4.13;;
22332;SDS011;11334;36.986;-121.936;2023-04-25T10:24:54;14.52;;;4.38;;
22332;SDS011;11334;36.986;-121.936;2023-04-25T10:27:21;12.15;;;4.15;;
22332;SDS011;11334;36.986;-121.936;2023-04-25T10:30:00;15.70;;;4.72;;
22332;SDS011;11334;36.986;-121.936;2023-04-25T10:32:32;14.40;;;5.13;;
22332;SDS011;11334;36.986;-121.936;2023-04-25T10:35:09;16.58;;;4.78;;
22332;SDS011;11334;36.986;-121.936;2023-04-25T10:37:56;15.18;;;4.22;;
22332;SDS011;11334;36.986;-121.936;2023-04-25T10:40:29;16.92;;;5.25;;
22332;SDS011;11334;36.986;-121.936;2023-04-25T10:43:33;18.52;;;4.82;;
22332;SDS011;11334;36.986;-121.936;2023-04-25T10:46:21;14.88;;;4.53;;
22332;SDS011;11334;36.986;-121.936;2023-04-25T10:48:52;12.40;;;4.82;;
22332;SDS011;11334;36.986;-121.936;2023-04-25T10:53:58;15.13;;;4.43;;
22332;SDS011;11334;36.986;-121.936;2023-04-25T10:56:38;11.00;;;4.40;;
22332;SDS011;11334;36.986;-121.936;2023-04-25T11:01:46;10.50;;;4.90;;
22332;SDS011;11334;36.986;-121.936;2023-04-25T11:04:24;17.08;;;5.10;;
22332;SDS011;11334;36.986;-121.936;2023-04-25T11:07:09;14.98;;;4.65;;
22332;SDS011;11334;36.986;-121.936;2023-04-25T11:09:49;18.15;;;4.88;;
22332;SDS011;11334;36.986;-121.936;2023-04-25T11:12:15;9.32;;;4.15;;
22332;SDS011;11334;36.986;-121.936;2023-04-25T11:14:42;15.50;;;4.57;;
22332;SDS011;11334;36.986;-121.936;2023-04-25T11:17:09;10.50;;;4.70;;
22332;SDS011;11334;36.986;-121.936;2023-04-25T11:19:36;12.48;;;4.35;;
22332;SDS011;11334;36.986;-121.936;2023-04-25T11:22:02;13.52;;;4.95;;
22332;SDS011;11334;36.986;-121.936;2023-04-25T11:24:29;13.65;;;4.35;;
22332;SDS011;11334;36.986;-121.936;2023-04-25T11:27:00;19.98;;;4.72;;
22332;SDS011;11334;36.986;-121.936;2023-04-25T11:29:28;19.30;;;4.80;;
22332;SDS011;11334;36.986;-121.936;2023-04-25T11:31:56;19.58;;;4.70;;
22332;SDS011;11334;36.986;-121.936;2023-04-25T11:34:26;22.10;;;5.28;;
22332;SDS011;11334;36.986;-121.936;2023-04-25T11:36:56;14.52;;;5.10;;
22332;SDS011;11334;36.986;-121.936;2023-04-25T11:39:25;15.70;;;5.93;;
22332;SDS011;11334;36.986;-121.936;2023-04-25T11:41:52;19.00;;;5.13;;
22332;SDS011;11334;36.986;-121.936;2023-04-25T11:44:19;15.93;;;5.93;;
22332;SDS011;11334;36.986;-121.936;2023-04-25T11:46:47;21.00;;;6.38;;
22332;SDS011;11334;36.986;-121.936;2023-04-25T11:49:14;17.88;;;5.95;;
22332;SDS011;11334;36.986;-121.936;2023-04-25T11:51:44;13.38;;;5.03;;
22332;SDS011;11334;36.986;-121.936;2023-04-25T11:54:12;18.02;;;5.00;;
22332;SDS011;11334;36.986;-121.936;2023-04-25T11:56:42;13.40;;;4.13;;
22332;SDS011;11334;36.986;-121.936;2023-04-25T11:59:12;13.45;;;4.15;;
22332;SDS011;11334;36.986;-121.936;2023-04-25T12:01:39;16.15;;;5.05;;
22332;SDS011;11334;36.986;-121.936;2023-04-25T12:04:10;15.50;;;5.47;;
22332;SDS011;11334;36.986;-121.936;2023-04-25T12:06:38;20.38;;;5.35;;
22332;SDS011;11334;36.986;-121.936;2023-04-25T12:09:10;15.80;;;5.20;;
22332;SDS011;11334;36.986;-121.936;2023-04-25T12:11:47;15.75;;;4.80;;
22332;SDS011;11334;36.986;-121.936;2023-04-25T12:14:36;23.42;;;5.40;;
22332;SDS011;11334;36.986;-121.936;2023-04-25T12:17:03;14.00;;;4.38;;
22332;SDS011;11334;36.986;-121.936;2023-04-25T12:19:33;18.10;;;4.97;;
22332;SDS011;11334;36.986;-121.936;2023-04-25T12:22:01;16.08;;;5.97;;
22332;SDS011;11334;36.986;-121.936;2023-04-25T12:24:28;16.27;;;6.07;;
22332;SDS011;11334;36.986;-121.936;2023-04-25T12:29:27;17.00;;;5.80;;
22332;SDS011;11334;36.986;-121.936;2023-04-25T12:31:55;14.93;;;5.28;;
22332;SDS011;11334;36.986;-121.936;2023-04-25T12:34:22;19.67;;;6.32;;
22332;SDS011;11334;36.986;-121.936;2023-04-25T12:36:49;18.92;;;5.35;;
22332;SDS011;11334;36.986;-121.936;2023-04-25T12:39:17;14.00;;;5.10;;
22332;SDS011;11334;36.986;-121.936;2023-04-25T12:41:47;19.95;;;5.03;;
22332;SDS011;11334;36.986;-121.936;2023-04-25T12:44:14;13.00;;;4.53;;
22332;SDS011;11334;36.986;-121.936;2023-04-25T12:46:41;10.75;;;4.18;;
22332;SDS011;11334;36.986;-121.936;2023-04-25T12:49:07;12.65;;;4.60;;
22332;SDS011;11334;36.986;-121.936;2023-04-25T12:51:34;9.95;;;3.75;;
22332;SDS011;11334;36.986;-121.936;2023-04-25T12:54:01;8.80;;;4.13;;
22332;SDS011;11334;36.986;-121.936;2023-04-25T12:56:29;15.73;;;5.97;;
22332;SDS011;11334;36.986;-121.936;2023-04-25T12:58:56;9.85;;;4.22;;
22332;SDS011;11334;36.986;-121.936;2023-04-25T13:01:23;14.20;;;4.20;;
22332;SDS011;11334;36.986;-121.936;2023-04-25T13:03:50;10.10;;;4.32;;
22332;SDS011;11334;36.986;-121.936;2023-04-25T13:06:17;15.63;;;4.80;;
22332;SDS011;11334;36.986;-121.936;2023-04-25T13:08:44;17.17;;;5.10;;
22332;SDS011;11334;36.986;-121.936;2023-04-25T13:11:11;18.27;;;5.03;;
22332;SDS011;11334;36.986;-121.936;2023-04-25T13:13:37;14.40;;;5.35;;
22332;SDS011;11334;36.986;-121.936;2023-04-25T13:16:05;15.52;;;5.72;;
22332;SDS011;11334;36.986;-121.936;2023-04-25T13:18:32;15.13;;;4.82;;
22332;SDS011;11334;36.986;-121.936;2023-04-25T13:20:59;21.27;;;5.57;;
22332;SDS011;11334;36.986;-121.936;2023-04-25T13:23:26;18.45;;;5.95;;
22332;SDS011;11334;36.986;-121.936;2023-04-25T13:25:54;13.10;;;5.35;;
22332;SDS011;11334;36.986;-121.936;2023-04-25T13:28:23;13.23;;;5.43;;
22332;SDS011;11334;36.986;-121.936;2023-04-25T13:30:50;17.17;;;5.30;;
22332;SDS011;11334;36.986;-121.936;2023-04-25T13:33:17;16.33;;;5.25;;
22332;SDS011;11334;36.986;-121.936;2023-04-25T13:35:43;16.90;;;5.40;;
22332;SDS011;11334;36.986;-121.936;2023-04-25T13:38:22;13.70;;;4.70;;
22332;SDS011;11334;36.986;-121.936;2023-04-25T13:40:50;10.43;;;4.88;;
22332;SDS011;11334;36.986;-121.936;2023-04-25T13:43:20;10.52;;;4.30;;
22332;SDS011;11334;36.986;-121.936;2023-04-25T13:45:48;11.93;;;4.55;;
22332;SDS011;11334;36.986;-121.936;2023-04-25T13:48:15;16.20;;;4.55;;
22332;SDS011;11334;36.986;-121.936;2023-04-25T13:50:41;13.70;;;4.88;;
22332;SDS011;11334;36.986;-121.936;2023-04-25T13:53:08;11.75;;;3.65;;
22332;SDS011;11334;36.986;-121.936;2023-04-25T13:55:34;15.27;;;4.40;;
22332;SDS011;11334;36.986;-121.936;2023-04-25T13:58:04;9.82;;;4.15;;
22332;SDS011;11334;36.986;-121.936;2023-04-25T14:00:41;8.98;;;3.72;;
22332;SDS011;11334;36.986;-121.936;2023-04-25T14:03:08;9.52;;;3.90;;
22332;SDS011;11334;36.986;-121.936;2023-04-25T14:05:35;7.68;;;3.80;;
22332;SDS011;11334;36.986;-121.936;2023-04-25T14:08:08;12.63;;;3.92;;
22332;SDS011;11334;36.986;-121.936;2023-04-25T14:10:35;7.82;;;3.58;;
22332;SDS011;11334;36.986;-121.936;2023-04-25T14:13:02;9.38;;;3.35;;
22332;SDS011;11334;36.986;-121.936;2023-04-25T14:15:29;8.77;;;3.85;;
22332;SDS011;11334;36.986;-121.936;2023-04-25T14:17:59;9.52;;;3.60;;
22332;SDS011;11334;36.986;-121.936;2023-04-25T14:20:26;9.85;;;3.90;;
22332;SDS011;11334;36.986;-121.936;2023-04-25T14:22:52;11.07;;;4.25;;